Lafayette, Louisiana
Current Conditions -  °F | °C
As of 5:53 PM on Sunday 25 Jan 2015 (Local Time) from KLFT Reporting Station
Clear Clear  
Wind Chill: 58°   Ceiling: Unl
Heat Index: 58°   Visibility: 10mi
Dew Point: 46°   Wind: 9mph
Humidity: 65%   Direction: 250°WSW
Pressure: 29.91"   Gusts: NA
Location:  30.22°N, 92.02°W
Report Text: KLFT 252353Z 25008KT 10SM CLR 14/08 A2991 RMK AO2 SLP129 T01440078 10194 20144 55008
Loading
Personal Weather Stations






























Interactive Weather Map New forecast layout! Learn more

10-Day Weather Forecast

Advertisements
Track Severe Weather on mobile